aviador You're here:

LFBO Decoded Metar

TOULOUSE BLAGNAC in FRANCE
Report Time2017-12-16 16:30:00
UTC Time2017-12-16 16:51:48
Flight Rules vfr VFR
Wind290° at 10 kt
W.Decomp.*RWY 32: 8.7 kt HW 5 kt LCW
W.Rank290° ranks 3
Current wind is above 290° avg. (8.8)
Visibility9999 m
Phenomena:N/A
Clouds:N/A
Expected CloudBase > 2,000 ft AGL from Temp-Dew spread
CeilingNone
Temp06°C (ISA -8)
Dew Point01°C (71% RH)
AAT0.6°C
QNH1023 hPa
Density Alt-709 ft
Elevation502 ft
Report Wrong Elevation
Raw Report
LFBO 161630Z AUTO 29010KT CAVOK 06/01 Q1023 NOSIG=

Extra information for LFBO:More info

Metar Taf Metar & Taf Last 4 Metars F.Rules Stats Wind Profile Meteogram Temp Stats Airport Information Weather charts Add Link Nearby VenuesMetar ALERT Operation Metar Decoded Social comments